Rogers, Ohio
Current Conditions -  °F | °C
As of 7:51 AM on Friday 28 Nov 2014 (Local Time) from KPIT Reporting Station
Broken Clouds Broken Clouds  
Wind Chill: 11°   Ceiling: 12000
Heat Index: 23°   Visibility: 10mi
Dew Point: 13°   Wind: 13mph
Humidity: 65%   Direction: 310°NW
Pressure: 30.31"   Gusts: NA
Location:  40.79°N, 80.63°W
Report Text: KPIT 281251Z 31011KT 10SM FEW012 SCT047 BKN120 M05/M11 A3031 RMK AO2 SNE18 SLP286 P0000 T10501106
Loading
Personal Weather Stations






























Interactive Weather Map New forecast layout! Learn more

10-Day Weather Forecast

Advertisements
Track Severe Weather on mobile